Terminal Aerodrome Forecast
Issued by NWS Houston/Galveston, TX

Home | Current Version | Previous Version | Text Only | Print | Product List | Glossary On
Versions: 1 2 3 4 5 6 7 8 9 10 11 12 13 14 15 16 17 18 19 20
000
FTUS44 KHGX 282320
TAFCLL
TAF
KCLL 282320Z 2900/2924 16017G27KT P6SM SCT250
     FM290300 15017G27KT P6SM BKN025
     FM290900 16016G26KT 6SM BR SCT009 BKN015
     FM291500 16015G25KT P6SM BKN020
     FM292000 16013G23KT 6SM HZ VCSH BKN022=

USA.gov is the U.S. government's official web portal to all federal, state and local government web resources and services.